Terminal Aerodrome Forecast
Issued by NWS

Home | Current Version | Previous Version | Text Only | Print | Product List | Glossary On
Versions: 1 2 3 4 5 6 7 8 9 10 11 12 13 14 15 16 17 18 19 20 21 22 23 24 25 26 27 28 29 30 31 32 33 34
000
FTUS43 KDTX 301135
TAFPTK
TAF
KPTK 301135Z 3012/3112 28013KT P6SM SKC
     FM301400 31013G20KT P6SM SCT035
     FM301700 31020G30KT P6SM SCT050
     FM302300 36005KT P6SM BKN200
     FM310400 09007KT 3SM -RASN BR OVC015
     FM310700 04010KT 1SM -SN OVC008=

USA.gov is the U.S. government's official web portal to all federal, state and local government web resources and services.